createdAt,value
2019-02-06T00:09:32.031Z,151.72
2019-02-06T00:11:58.887Z,154.40
2019-02-06T00:14:25.506Z,152.02
2019-02-06T00:16:52.244Z,149.77
2019-02-06T00:19:19.346Z,148.55
2019-02-06T00:21:46.151Z,147.90
2019-02-06T00:24:12.884Z,146.98
2019-02-06T00:26:39.448Z,146.47
2019-02-06T00:29:06.335Z,147.57
2019-02-06T00:31:33.264Z,146.57
2019-02-06T00:34:00.167Z,147.90
2019-02-06T00:36:27.169Z,146.98
2019-02-06T00:38:54.075Z,147.57
2019-02-06T00:41:20.712Z,146.65
2019-02-06T00:43:47.646Z,146.05
2019-02-06T09:36:07.073Z,135.20
2019-02-06T09:38:34.204Z,134.82
2019-02-06T09:41:01.349Z,135.15
2019-02-06T09:43:28.730Z,134.82
2019-02-06T09:45:57.106Z,135.32
2019-02-06T09:48:24.422Z,135.22
2019-02-06T09:50:51.526Z,135.60
2019-02-06T09:53:18.610Z,135.85
2019-02-06T09:55:45.709Z,135.20
2019-02-06T09:58:12.804Z,135.32
2019-02-06T10:00:39.888Z,135.07
2019-02-06T10:06:09.645Z,137.65
2019-02-06T10:08:36.758Z,135.57
2019-02-06T10:11:04.249Z,135.63
2019-02-06T10:13:31.309Z,135.52
2019-02-06T10:15:58.381Z,135.82
2019-02-06T10:18:25.396Z,135.65
2019-02-06T10:20:52.445Z,135.68
2019-02-06T10:23:19.591Z,134.97
2019-02-06T10:25:46.618Z,135.75
2019-02-06T10:28:13.664Z,135.48
2019-02-06T10:30:51.056Z,135.65
2019-02-06T10:33:19.091Z,135.10
2019-02-06T10:35:46.451Z,135.70
2019-02-06T10:38:13.561Z,136.15
2019-02-06T10:40:40.644Z,135.12
2019-02-06T10:43:07.656Z,135.70
2019-02-06T10:45:35.081Z,135.22
2019-02-06T10:48:02.140Z,135.68
2019-02-06T10:50:31.577Z,135.68
2019-02-06T10:52:58.607Z,135.35
2019-02-06T10:55:25.658Z,137.25
2019-02-06T10:57:52.688Z,135.82
2019-02-06T11:00:25.351Z,135.95
2019-02-06T11:02:52.765Z,136.43
2019-02-06T11:05:19.780Z,135.43
2019-02-06T11:07:47.937Z,135.60
2019-02-06T11:10:15.146Z,136.10
2019-02-06T11:12:42.197Z,135.57
2019-02-06T11:15:09.256Z,135.55
2019-02-06T11:17:36.285Z,135.55
2019-02-06T11:20:06.974Z,134.97
2019-02-06T11:22:34.010Z,136.32
2019-02-06T11:25:01.046Z,134.90
2019-02-06T11:27:28.035Z,135.82
2019-02-06T11:29:55.112Z,135.78
2019-02-06T11:32:22.143Z,135.18
2019-02-06T11:34:49.165Z,135.30
2019-02-06T11:37:16.212Z,135.50
2019-02-06T11:39:43.533Z,135.15
2019-02-06T11:42:10.556Z,135.90
2019-02-06T11:44:37.730Z,135.85
2019-02-06T11:47:05.877Z,135.63
2019-02-06T11:49:36.896Z,135.55
2019-02-06T11:52:03.995Z,135.68
2019-02-06T11:54:31.017Z,136.35
2019-02-06T11:56:58.239Z,135.75
2019-02-06T11:59:25.270Z,135.65
2019-02-06T12:01:53.082Z,135.28
2019-02-06T12:04:20.108Z,135.97
2019-02-06T12:06:47.158Z,135.48
2019-02-06T12:09:14.282Z,136.80
2019-02-06T12:11:41.305Z,135.63
2019-02-06T12:14:08.357Z,136.15
2019-02-06T12:16:35.724Z,135.60
2019-02-06T12:19:02.759Z,135.72
2019-02-06T12:21:29.907Z,135.57
2019-02-06T12:23:56.948Z,135.52
2019-02-06T12:26:23.998Z,135.72
2019-02-06T12:28:51.073Z,136.12
2019-02-06T12:31:18.093Z,135.18
2019-02-06T12:33:45.126Z,136.03
2019-02-06T12:36:12.304Z,136.35
2019-02-06T12:38:39.335Z,135.63
2019-02-06T12:41:06.370Z,135.43
2019-02-06T12:43:34.515Z,135.15
2019-02-06T12:46:01.532Z,136.15
2019-02-06T12:48:28.580Z,136.00
2019-02-06T12:50:55.652Z,136.07
2019-02-06T12:53:22.676Z,136.37
2019-02-06T12:55:50.302Z,135.95
2019-02-06T12:58:17.786Z,136.82
2019-02-06T13:00:44.817Z,135.80
2019-02-06T13:03:11.846Z,135.35
2019-02-06T13:09:38.732Z,135.95
2019-02-06T13:12:06.129Z,135.88
2019-02-06T13:14:34.983Z,136.57
2019-02-06T13:17:02.034Z,136.65
2019-02-06T13:19:29.113Z,136.28
2019-02-06T13:21:56.230Z,136.00
2019-02-06T13:24:23.251Z,135.80
2019-02-06T13:26:50.287Z,136.25
2019-02-06T13:29:17.716Z,135.97
2019-02-06T13:31:44.732Z,136.50
2019-02-06T13:34:11.777Z,136.85
2019-02-06T13:36:38.807Z,136.82
2019-02-06T13:39:08.968Z,135.88
2019-02-06T13:41:36.008Z,136.20
2019-02-06T13:44:03.113Z,136.72
2019-02-06T13:46:30.146Z,135.68
2019-02-06T13:48:57.201Z,136.03
2019-02-06T13:51:26.065Z,136.97
2019-02-06T13:53:53.093Z,136.90
2019-02-06T13:56:20.143Z,135.82
2019-02-06T13:58:47.183Z,136.85
2019-02-06T14:01:25.101Z,136.80
2019-02-06T14:03:43.149Z,137.25
2019-02-06T14:06:11.391Z,136.55
2019-02-06T14:08:38.729Z,136.07
2019-02-06T14:11:05.766Z,136.45
2019-02-06T14:13:32.790Z,137.40
2019-02-06T14:15:59.820Z,136.57
2019-02-06T14:18:26.863Z,136.70
2019-02-06T14:20:53.891Z,136.55
2019-02-06T14:23:31.357Z,136.62
2019-02-06T14:26:15.738Z,136.15
2019-02-06T14:29:39.105Z,136.43
2019-02-06T14:32:33.951Z,135.93
2019-02-06T14:35:55.285Z,136.00
2019-02-06T14:39:04.437Z,136.60
2019-02-06T14:41:54.452Z,136.45
2019-02-06T14:44:56.377Z,137.05
2019-02-06T14:47:52.277Z,136.32
2019-02-06T14:51:00.321Z,136.50
2019-02-06T14:53:49.847Z,136.20
2019-02-06T14:57:07.151Z,136.00
2019-02-06T15:00:12.622Z,136.90
2019-02-06T15:03:26.871Z,135.82
2019-02-06T15:06:19.456Z,136.25
2019-02-06T15:09:22.322Z,137.57
2019-02-06T15:12:07.506Z,136.18
2019-02-06T15:15:37.729Z,136.22
2019-02-06T15:18:44.780Z,137.05
2019-02-06T15:21:46.435Z,136.82
2019-02-06T15:24:46.033Z,137.15
2019-02-06T15:27:43.819Z,137.52
2019-02-06T15:30:57.708Z,136.07
2019-02-06T15:34:01.296Z,136.43
2019-02-06T15:36:54.422Z,137.18
2019-02-06T15:39:44.684Z,136.95
2019-02-06T15:42:30.247Z,137.68
2019-02-06T15:45:39.742Z,137.92
2019-02-06T15:48:39.186Z,136.88
2019-02-06T15:51:32.320Z,137.30
2019-02-06T15:54:38.899Z,137.35
2019-02-06T15:57:23.839Z,136.70
2019-02-06T16:00:18.546Z,136.50
2019-02-06T16:03:38.185Z,136.43
2019-02-06T16:06:34.411Z,136.30
2019-02-06T16:09:45.103Z,137.10
2019-02-06T16:12:53.352Z,136.85
2019-02-06T16:15:44.421Z,136.37
2019-02-06T16:18:24.161Z,136.12
2019-02-06T16:21:16.763Z,137.15
2019-02-06T16:24:22.116Z,136.50
2019-02-06T16:27:17.873Z,136.20
2019-02-06T16:30:28.260Z,137.10
2019-02-06T16:33:28.856Z,136.97
2019-02-06T16:36:48.441Z,135.93
2019-02-06T16:39:57.359Z,136.07
2019-02-06T16:43:00.593Z,136.47
2019-02-06T16:46:18.500Z,136.62
2019-02-06T16:49:32.003Z,137.25
2019-02-06T16:52:16.426Z,136.68
2019-02-06T16:55:11.304Z,137.00
2019-02-06T16:58:20.912Z,136.70
2019-02-06T17:01:44.168Z,136.35
2019-02-06T17:04:29.321Z,136.28
2019-02-06T17:07:50.007Z,136.32
2019-02-06T17:11:20.120Z,135.70
2019-02-06T17:14:40.879Z,135.97
2019-02-06T17:18:00.868Z,136.40
2019-02-06T17:21:05.985Z,136.57
2019-02-06T17:23:58.240Z,136.47
2019-02-06T17:27:25.225Z,135.95
2019-02-06T17:30:21.673Z,135.45
2019-02-06T17:33:33.522Z,137.75
2019-02-06T17:36:23.365Z,135.88
2019-02-06T17:39:23.846Z,135.57
2019-02-06T17:42:21.693Z,136.65
2019-02-06T17:45:25.386Z,136.47
2019-02-06T17:48:09.560Z,136.70
2019-02-06T17:51:26.737Z,136.07
2019-02-06T17:54:09.675Z,135.97
2019-02-06T17:56:36.400Z,136.28
2019-02-06T17:59:04.907Z,137.25
2019-02-06T18:01:40.376Z,135.82
2019-02-06T18:04:16.748Z,137.03
2019-02-06T18:06:44.759Z,136.18
2019-02-06T18:09:15.835Z,136.00
2019-02-06T18:11:42.536Z,136.60
2019-02-06T18:14:09.236Z,135.43
2019-02-06T18:16:35.973Z,136.07
2019-02-06T18:19:02.770Z,136.05
2019-02-06T18:21:29.638Z,136.10
2019-02-06T18:23:56.374Z,136.62
2019-02-06T18:26:23.075Z,137.88
2019-02-06T18:28:50.085Z,136.15
2019-02-06T18:31:16.793Z,137.20
2019-02-06T18:33:43.481Z,135.82
2019-02-06T18:36:10.241Z,135.70
2019-02-06T18:38:46.233Z,136.47
2019-02-06T18:41:07.461Z,136.25
2019-02-06T18:43:34.184Z,136.50
2019-02-06T18:46:02.120Z,136.25
2019-02-06T18:48:28.857Z,135.90
2019-02-06T18:50:56.077Z,136.80
2019-02-06T18:53:22.777Z,136.10
2019-02-06T18:55:51.319Z,137.22
2019-02-06T18:58:18.193Z,136.85
2019-02-06T19:00:45.245Z,136.10
2019-02-06T19:03:18.110Z,136.97
2019-02-06T19:05:45.036Z,137.37
2019-02-06T19:08:11.940Z,136.62
2019-02-06T19:10:38.682Z,136.80
2019-02-06T19:13:05.779Z,136.32
2019-02-06T19:15:32.501Z,139.40
2019-02-06T19:17:59.253Z,136.50
2019-02-06T19:20:25.944Z,136.28
2019-02-06T19:22:53.730Z,135.82
2019-02-06T19:25:20.439Z,136.30
2019-02-06T19:27:47.136Z,136.12
2019-02-06T19:30:25.201Z,136.82
2019-02-06T19:32:52.197Z,136.07
2019-02-06T19:35:18.907Z,135.78
2019-02-06T19:37:48.309Z,136.43
2019-02-06T19:40:14.500Z,136.07
2019-02-06T19:42:41.544Z,136.10
2019-02-06T19:45:08.626Z,136.55
2019-02-06T19:47:35.745Z,136.05
2019-02-06T19:50:04.245Z,136.50
2019-02-06T19:52:31.591Z,136.22
2019-02-06T19:54:58.580Z,136.55
2019-02-06T19:57:26.073Z,135.78
2019-02-06T19:59:52.874Z,135.90
2019-02-06T20:02:19.574Z,136.82
2019-02-06T20:04:46.297Z,136.75
2019-02-06T20:07:12.997Z,136.00
2019-02-06T20:09:39.792Z,136.50
2019-02-06T20:12:06.527Z,135.72
2019-02-06T20:14:33.261Z,136.32
2019-02-06T20:17:00.452Z,136.50
2019-02-06T20:19:27.159Z,135.88
2019-02-06T20:21:53.882Z,137.18
2019-02-06T20:24:20.582Z,135.65
2019-02-06T20:26:47.291Z,136.82
2019-02-06T20:29:14.000Z,137.68
2019-02-06T20:31:40.798Z,136.07
2019-02-06T20:34:07.546Z,136.72
2019-02-06T20:36:34.273Z,137.10
2019-02-06T20:39:01.393Z,136.18
2019-02-06T20:41:30.023Z,135.75
2019-02-06T20:43:56.738Z,136.43
2019-02-06T20:46:23.448Z,136.15
2019-02-06T20:48:50.386Z,136.25
2019-02-06T20:51:17.075Z,136.55
2019-02-06T20:53:43.800Z,136.95
2019-02-06T20:56:10.522Z,136.77
2019-02-06T20:58:39.147Z,136.18
2019-02-06T21:01:06.251Z,136.68
2019-02-06T21:03:32.969Z,136.77
2019-02-06T21:05:59.673Z,137.00
2019-02-06T21:08:26.399Z,136.40
2019-02-06T21:10:53.113Z,136.37
2019-02-06T21:13:19.810Z,135.75
2019-02-06T21:15:46.524Z,136.75
2019-02-06T21:18:13.233Z,136.92
2019-02-06T21:20:40.342Z,136.45
2019-02-06T21:23:07.052Z,138.80
2019-02-06T21:25:33.764Z,136.57
2019-02-06T21:28:00.602Z,137.10
2019-02-06T21:30:29.463Z,137.55
2019-02-06T21:32:56.272Z,136.37
2019-02-06T21:35:22.957Z,136.32
2019-02-06T21:37:49.711Z,136.15
2019-02-06T21:40:20.274Z,136.20
2019-02-06T21:42:47.098Z,136.55
2019-02-06T21:45:13.791Z,136.55
2019-02-06T21:47:40.508Z,136.43
2019-02-06T21:50:09.184Z,136.57
2019-02-06T21:52:35.916Z,136.90
2019-02-06T21:55:03.517Z,137.72
2019-02-06T21:57:30.848Z,136.32
2019-02-06T21:59:57.569Z,136.12
2019-02-06T22:02:24.272Z,135.97
2019-02-06T22:04:50.998Z,136.60
2019-02-06T22:07:19.186Z,136.55
2019-02-06T22:09:45.905Z,137.55
2019-02-06T22:12:12.631Z,136.03
2019-02-06T22:14:39.727Z,135.72
2019-02-06T22:17:06.436Z,136.68
2019-02-06T22:19:33.116Z,135.68
2019-02-06T22:21:59.905Z,136.47
2019-02-06T22:24:26.649Z,136.28
2019-02-06T22:26:53.337Z,136.18
2019-02-06T22:29:20.030Z,136.40
2019-02-06T22:31:46.760Z,135.43
2019-02-06T22:34:13.659Z,135.97
2019-02-06T22:36:40.355Z,136.37
2019-02-06T22:39:10.117Z,136.03
2019-02-06T22:41:37.521Z,136.35
2019-02-06T22:44:06.555Z,137.55
2019-02-06T22:46:33.080Z,137.65
2019-02-06T22:49:00.866Z,137.72
2019-02-06T22:51:27.881Z,136.12
2019-02-06T22:53:55.490Z,136.90
2019-02-06T22:56:22.288Z,136.10
2019-02-06T22:58:49.101Z,135.55
2019-02-06T23:01:35.280Z,136.20
2019-02-06T23:04:02.381Z,136.47
2019-02-06T23:06:29.054Z,136.70
2019-02-06T23:08:55.804Z,136.25
2019-02-06T23:11:22.501Z,143.62
2019-02-06T23:13:49.517Z,137.28
2019-02-06T23:16:16.310Z,137.18
2019-02-06T23:18:42.980Z,137.05
2019-02-06T23:21:09.683Z,137.50
2019-02-06T23:23:37.058Z,137.55
2019-02-06T23:26:03.952Z,137.97
2019-02-06T23:28:30.681Z,138.30
